Time;durP1;ratioP1;P1;durP2;ratioP2;P2;SDS_P1;SDS_P2;PMS_P1;PMS_P2;Temp;Humidity;BMP_temperature;BMP_pressure;BME280_temperature;BME280_humidity;BME280_pressure;Samples;Min_cycle;Max_cycle;Signal;HPM_P1;HPM_P2
2022/01/07 00:00:17;;;;;;;;;;;;;;;7.61;35.22;99659.47;4483653;32;33448;-85
2022/01/07 00:02:48;;;;;;;;;;;;;;;7.88;34.52;99654.28;4481156;32;33830;-87
2022/01/07 00:05:16;;;;;;;;;;;;;;;7.93;34.88;99657.91;4483852;32;34256;-85
2022/01/07 00:07:43;;;;;;;;;;;;;;;8.03;34.36;99670.25;4481995;32;34798;-85
2022/01/07 00:10:11;;;;;;;;;;;;;;;7.36;36.12;99686.16;4473368;32;32454;-89
2022/01/07 00:12:39;;;;;;;;;;;;;;;7.43;35.79;99685.56;4484192;32;34017;-86
2022/01/07 00:15:06;;;;;;;;;;;;;;;7.91;35.10;99687.94;4484032;32;34155;-84
2022/01/07 00:17:33;;;;;;;;;;;;;;;7.88;34.99;99683.59;4482632;32;34369;-88
2022/01/07 00:20:01;;;;;;;;;;;;;;;7.40;35.69;99680.28;4484020;32;33679;-83
2022/01/07 00:22:28;;;;;;;;;;;;;;;7.56;35.20;99679.97;4483983;32;34955;-86
2022/01/07 00:24:55;;;;;;;;;;;;;;;7.75;35.16;99689.19;4483641;32;34473;-85
2022/01/07 00:27:26;;;;;;;;;;;;;;;7.97;35.03;99683.00;4483729;32;33905;-85
2022/01/07 00:29:53;;;;;;;;;;;;;;;8.15;34.54;99693.03;4483267;32;33362;-84
2022/01/07 00:32:20;;;;;;;;;;;;;;;8.59;33.85;99690.91;4484262;32;33625;-85
2022/01/07 00:34:48;;;;;;;;;;;;;;;8.80;33.88;99688.94;4484059;32;34010;-84
2022/01/07 00:37:15;;;;;;;;;;;;;;;8.56;34.25;99691.72;4481563;32;34764;-86
2022/01/07 00:39:42;;;;;;;;;;;;;;;8.81;34.02;99674.31;4482639;32;34148;-86
2022/01/07 00:42:09;;;;;;;;;;;;;;;8.33;34.21;99674.59;4483716;32;34943;-86
2022/01/07 00:44:37;;;;;;;;;;;;;;;8.48;34.16;99680.25;4484266;32;35308;-87
2022/01/07 00:47:04;;;;;;;;;;;;;;;8.38;34.17;99686.88;4482029;32;34098;-84
2022/01/07 00:49:32;;;;;;;;;;;;;;;7.47;35.69;99685.69;4482698;32;33268;-85
2022/01/07 00:52:01;;;;;;;;;;;;;;;6.88;36.54;99681.06;4483666;32;34073;-86
2022/01/07 00:54:28;;;;;;;;;;;;;;;6.59;36.86;99678.28;4483628;32;34856;-86
2022/01/07 00:56:55;;;;;;;;;;;;;;;6.67;37.09;99683.75;4483228;32;33879;-84
2022/01/07 00:59:22;;;;;;;;;;;;;;;6.22;38.31;99687.22;4483484;32;33045;-85
2022/01/07 01:01:50;;;;;;;;;;;;;;;6.66;37.70;99694.84;4482664;32;34207;-83
2022/01/07 01:04:37;;;;;;;;;;;;;;;6.44;38.28;99675.16;4474745;32;34176;-82
2022/01/07 01:07:04;;;;;;;;;;;;;;;5.70;39.50;99658.53;4482312;32;34892;-87
2022/01/07 01:09:31;;;;;;;;;;;;;;;6.01;39.26;99660.66;4483777;32;34276;-85
2022/01/07 01:12:00;;;;;;;;;;;;;;;3.26;45.33;99675.88;4483460;32;34189;-85
2022/01/07 01:14:29;;;;;;;;;;;;;;;4.08;43.82;99676.38;4483006;32;32838;-83
2022/01/07 01:16:56;;;;;;;;;;;;;;;3.78;44.92;99678.38;4483297;32;34783;-86
2022/01/07 01:19:23;;;;;;;;;;;;;;;3.98;44.36;99684.47;4482233;32;33636;-82
2022/01/07 01:21:50;;;;;;;;;;;;;;;4.27;43.86;99678.12;4483058;32;34965;-85
2022/01/07 01:24:18;;;;;;;;;;;;;;;4.29;43.97;99666.25;4481958;32;34350;-84
2022/01/07 01:26:45;;;;;;;;;;;;;;;4.17;44.13;99668.25;4481887;32;34172;-81
2022/01/07 01:29:12;;;;;;;;;;;;;;;4.19;43.99;99666.63;4482992;32;32497;-83
2022/01/07 01:31:39;;;;;;;;;;;;;;;5.25;41.92;99664.44;4483630;32;34252;-84
2022/01/07 01:34:06;;;;;;;;;;;;;;;5.78;40.64;99673.47;4483434;32;34496;-85
2022/01/07 01:36:34;;;;;;;;;;;;;;;6.08;39.59;99678.09;4483104;32;34210;-86
2022/01/07 01:39:01;;;;;;;;;;;;;;;6.25;39.46;99679.63;4483223;32;33317;-82
2022/01/07 01:41:28;;;;;;;;;;;;;;;7.21;37.71;99689.97;4481896;32;34997;-83
2022/01/07 01:43:56;;;;;;;;;;;;;;;6.05;38.94;99696.84;4483910;32;34428;-86
2022/01/07 01:46:23;;;;;;;;;;;;;;;6.05;39.32;99698.56;4482217;32;33883;-86
2022/01/07 01:48:50;;;;;;;;;;;;;;;7.01;37.54;99686.72;4483338;32;33190;-87
2022/01/07 01:51:18;;;;;;;;;;;;;;;7.35;36.95;99694.72;4483145;32;33597;-85
2022/01/07 01:53:45;;;;;;;;;;;;;;;7.00;37.78;99689.22;4483559;32;33993;-86
2022/01/07 01:56:12;;;;;;;;;;;;;;;6.27;38.81;99700.28;4483268;32;33833;-85
2022/01/07 01:58:39;;;;;;;;;;;;;;;6.66;38.16;99708.59;4482817;32;32960;-84
2022/01/07 02:01:06;;;;;;;;;;;;;;;5.47;39.60;99714.19;4482853;32;33619;-83
2022/01/07 02:03:34;;;;;;;;;;;;;;;5.26;41.03;99720.16;4481892;32;34461;-86
2022/01/07 02:06:01;;;;;;;;;;;;;;;5.52;40.33;99717.81;4479283;32;35097;-83
2022/01/07 02:08:29;;;;;;;;;;;;;;;5.65;40.30;99724.38;4482480;32;34211;-86
2022/01/07 02:10:57;;;;;;;;;;;;;;;4.65;41.78;99725.19;4483396;31;33622;-84
2022/01/07 02:13:24;;;;;;;;;;;;;;;3.99;43.12;99723.84;4483242;32;34490;-84
2022/01/07 02:15:52;;;;;;;;;;;;;;;4.05;43.29;99722.44;4483684;32;34609;-85
2022/01/07 02:18:19;;;;;;;;;;;;;;;4.77;42.34;99715.50;4482400;32;33774;-85
2022/01/07 02:20:48;;;;;;;;;;;;;;;4.90;41.85;99711.75;4467891;32;34149;-82
2022/01/07 02:23:16;;;;;;;;;;;;;;;4.60;42.91;99717.28;4476432;32;34437;-84
2022/01/07 02:25:44;;;;;;;;;;;;;;;5.10;41.58;99716.06;4482919;32;33928;-85
2022/01/07 02:28:11;;;;;;;;;;;;;;;6.17;39.29;99719.63;4482176;32;34286;-83
2022/01/07 02:30:40;;;;;;;;;;;;;;;5.45;39.99;99705.53;4482709;32;33617;-85
2022/01/07 02:33:08;;;;;;;;;;;;;;;5.04;41.12;99702.09;4481679;32;35141;-82
2022/01/07 02:35:35;;;;;;;;;;;;;;;4.66;41.82;99705.53;4481480;32;34424;-84
2022/01/07 02:38:03;;;;;;;;;;;;;;;5.97;39.45;99702.53;4482943;32;33450;-84
2022/01/07 02:40:30;;;;;;;;;;;;;;;5.70;39.85;99713.44;4481341;31;34161;-84
2022/01/07 02:42:57;;;;;;;;;;;;;;;6.67;37.59;99722.41;4482559;32;35210;-86
2022/01/07 02:45:24;;;;;;;;;;;;;;;6.48;37.92;99718.25;4481931;32;34546;-84
2022/01/07 02:47:57;;;;;;;;;;;;;;;6.16;38.63;99710.16;4483112;32;33450;-84
2022/01/07 02:50:33;;;;;;;;;;;;;;;6.14;38.09;99704.09;4482767;32;34806;-84
2022/01/07 02:53:01;;;;;;;;;;;;;;;6.78;37.29;99709.09;4482797;32;33998;-84
2022/01/07 02:55:28;;;;;;;;;;;;;;;5.30;39.44;99698.94;4479323;32;35058;-84
2022/01/07 02:57:56;;;;;;;;;;;;;;;6.28;38.33;99697.75;4482964;32;32966;-85
2022/01/07 03:00:24;;;;;;;;;;;;;;;6.12;38.47;99697.97;4482220;32;33577;-85
2022/01/07 03:02:51;;;;;;;;;;;;;;;6.81;37.25;99698.84;4482234;32;34169;-85
2022/01/07 03:05:19;;;;;;;;;;;;;;;7.09;35.75;99689.56;4482255;32;35069;-84
2022/01/07 03:07:49;;;;;;;;;;;;;;;7.26;35.83;99698.72;4482271;32;33295;-85
2022/01/07 03:10:17;;;;;;;;;;;;;;;7.18;35.97;99697.59;4480391;32;33563;-84
2022/01/07 03:12:44;;;;;;;;;;;;;;;7.29;35.99;99697.97;4481204;32;34414;-85
2022/01/07 03:15:12;;;;;;;;;;;;;;;7.43;35.56;99701.03;4482617;32;35590;-85
2022/01/07 03:17:40;;;;;;;;;;;;;;;8.09;34.54;99705.75;4482325;32;33085;-83
2022/01/07 03:20:08;;;;;;;;;;;;;;;7.82;34.70;99711.78;4480630;32;34950;-84
2022/01/07 03:22:36;;;;;;;;;;;;;;;7.85;34.56;99713.59;4481379;32;34437;-83
2022/01/07 03:25:03;;;;;;;;;;;;;;;7.91;34.63;99717.22;4481590;32;36364;-84
2022/01/07 03:27:30;;;;;;;;;;;;;;;8.04;34.37;99736.59;4482025;32;33548;-83
2022/01/07 03:29:58;;;;;;;;;;;;;;;8.35;33.74;99740.13;4482063;32;34095;-84
2022/01/07 03:32:25;;;;;;;;;;;;;;;8.03;33.90;99737.38;4482210;32;33872;-86
2022/01/07 03:34:52;;;;;;;;;;;;;;;8.01;34.30;99736.47;4481729;32;34150;-85
2022/01/07 03:37:20;;;;;;;;;;;;;;;7.75;34.88;99736.50;4482604;32;34290;-86
2022/01/07 03:39:47;;;;;;;;;;;;;;;7.55;35.19;99742.72;4481055;32;33346;-83
2022/01/07 03:42:14;;;;;;;;;;;;;;;7.65;35.30;99743.88;4482308;31;34839;-83
2022/01/07 03:44:41;;;;;;;;;;;;;;;7.42;35.62;99745.69;4481175;32;34377;-86
2022/01/07 03:47:09;;;;;;;;;;;;;;;7.49;35.37;99745.94;4482344;32;34325;-84
2022/01/07 03:49:36;;;;;;;;;;;;;;;7.58;35.47;99755.72;4481963;32;34962;-82
2022/01/07 03:52:04;;;;;;;;;;;;;;;7.86;34.91;99749.78;4481668;32;34255;-83
2022/01/07 03:54:31;;;;;;;;;;;;;;;7.84;34.76;99746.28;4480047;32;33888;-83
2022/01/07 03:56:58;;;;;;;;;;;;;;;7.79;34.69;99740.94;4481185;32;33119;-83
2022/01/07 03:59:27;;;;;;;;;;;;;;;7.82;34.47;99741.87;4481534;32;33943;-85
2022/01/07 04:01:54;;;;;;;;;;;;;;;7.93;34.46;99740.53;4481660;32;34790;-85
2022/01/07 04:04:21;;;;;;;;;;;;;;;7.83;34.51;99741.03;4480978;32;34365;-83
2022/01/07 04:06:49;;;;;;;;;;;;;;;7.59;35.03;99742.00;4481608;32;33217;-83
2022/01/07 04:09:16;;;;;;;;;;;;;;;7.62;35.05;99749.84;4482163;32;34051;-85
2022/01/07 04:11:43;;;;;;;;;;;;;;;7.48;35.03;99748.50;4475379;32;33748;-85
2022/01/07 04:14:10;;;;;;;;;;;;;;;7.41;35.07;99741.34;4481953;32;33887;-84
2022/01/07 04:16:37;;;;;;;;;;;;;;;7.39;35.27;99743.91;4481774;32;33189;-85
2022/01/07 04:19:05;;;;;;;;;;;;;;;7.30;35.27;99739.28;4481590;32;33922;-85
2022/01/07 04:21:32;;;;;;;;;;;;;;;7.44;35.01;99738.88;4482145;32;34131;-85
2022/01/07 04:23:59;;;;;;;;;;;;;;;7.48;34.96;99731.31;4483716;32;33852;-84
2022/01/07 04:26:27;;;;;;;;;;;;;;;7.40;35.20;99737.91;4483388;32;33620;-85
2022/01/07 04:28:54;;;;;;;;;;;;;;;7.48;34.86;99744.19;4484223;32;35021;-83
2022/01/07 04:31:21;;;;;;;;;;;;;;;7.33;34.38;99754.00;4483105;32;34165;-84
2022/01/07 04:33:48;;;;;;;;;;;;;;;7.67;33.98;99750.88;4483489;32;33826;-83
2022/01/07 04:36:17;;;;;;;;;;;;;;;7.62;33.63;99755.00;4484351;32;33473;-84
2022/01/07 04:38:45;;;;;;;;;;;;;;;6.99;35.06;99754.50;4484585;32;34185;-86
2022/01/07 04:41:12;;;;;;;;;;;;;;;7.02;35.44;99762.34;4483681;31;35086;-83
2022/01/07 04:43:39;;;;;;;;;;;;;;;7.29;35.10;99749.56;4484306;32;34488;-85
2022/01/07 04:46:07;;;;;;;;;;;;;;;7.43;34.81;99752.62;4482146;32;33524;-85
2022/01/07 04:48:34;;;;;;;;;;;;;;;7.77;34.02;99755.50;4483572;32;34226;-84
2022/01/07 04:51:01;;;;;;;;;;;;;;;7.69;33.83;99759.56;4483660;32;35378;-83
2022/01/07 04:53:28;;;;;;;;;;;;;;;7.49;34.07;99750.22;4483767;32;35010;-85
2022/01/07 04:55:58;;;;;;;;;;;;;;;7.40;34.67;99763.69;4483884;32;33433;-87
2022/01/07 04:58:26;;;;;;;;;;;;;;;7.44;34.75;99759.53;4483107;32;34048;-85
2022/01/07 05:00:53;;;;;;;;;;;;;;;7.18;34.33;99769.78;4483355;32;34051;-84
2022/01/07 05:03:20;;;;;;;;;;;;;;;7.55;33.92;99760.78;4483026;32;34299;-84
2022/01/07 05:05:56;;;;;;;;;;;;;;;7.13;34.38;99765.31;4483415;32;34401;-85
2022/01/07 05:08:23;;;;;;;;;;;;;;;6.88;35.08;99760.94;4483651;32;34627;-85
2022/01/07 05:10:50;;;;;;;;;;;;;;;6.93;35.44;99767.13;4482967;32;34380;-85
2022/01/07 05:13:17;;;;;;;;;;;;;;;7.12;34.86;99755.78;4483234;32;34204;-84
2022/01/07 05:15:45;;;;;;;;;;;;;;;7.10;34.70;99755.75;4483176;32;33489;-84
2022/01/07 05:18:12;;;;;;;;;;;;;;;7.20;34.63;99759.56;4483323;32;34499;-82
2022/01/07 05:20:39;;;;;;;;;;;;;;;7.40;34.26;99750.81;4483254;32;34436;-83
2022/01/07 05:23:07;;;;;;;;;;;;;;;7.12;34.80;99758.38;4483777;32;34830;-83
2022/01/07 05:25:34;;;;;;;;;;;;;;;7.22;34.74;99758.75;4482493;32;33990;-84
2022/01/07 05:28:01;;;;;;;;;;;;;;;7.47;34.22;99754.47;4483263;32;34457;-86
2022/01/07 05:30:29;;;;;;;;;;;;;;;7.23;34.27;99764.78;4483338;32;35209;-83
2022/01/07 05:32:56;;;;;;;;;;;;;;;7.09;34.57;99769.47;4482373;32;34363;-86
2022/01/07 05:35:25;;;;;;;;;;;;;;;7.05;34.91;99767.63;4483559;32;33482;-85
2022/01/07 05:37:53;;;;;;;;;;;;;;;7.12;34.78;99761.81;4483480;32;34192;-84
2022/01/07 05:40:20;;;;;;;;;;;;;;;6.54;35.31;99776.00;4481713;31;33033;-86
2022/01/07 05:42:47;;;;;;;;;;;;;;;6.88;34.51;99769.56;4482007;32;34998;-86
2022/01/07 05:45:15;;;;;;;;;;;;;;;6.82;34.33;99765.06;4482989;32;33553;-84
2022/01/07 05:47:43;;;;;;;;;;;;;;;7.12;33.90;99764.41;4483788;32;34224;-86
2022/01/07 05:50:10;;;;;;;;;;;;;;;6.61;34.45;99771.97;4483625;32;35480;-83
2022/01/07 05:52:38;;;;;;;;;;;;;;;6.76;34.31;99780.28;4484127;32;34835;-85
2022/01/07 05:55:05;;;;;;;;;;;;;;;7.02;34.18;99772.66;4483494;32;34059;-83
2022/01/07 05:57:32;;;;;;;;;;;;;;;6.78;34.45;99765.78;4482343;32;34283;-84
2022/01/07 06:00:00;;;;;;;;;;;;;;;5.78;35.91;99783.22;4479064;32;34365;-86
2022/01/07 06:02:27;;;;;;;;;;;;;;;5.60;36.48;99776.47;4482069;32;34145;-84
2022/01/07 06:04:55;;;;;;;;;;;;;;;6.22;35.69;99771.31;4481744;32;33763;-83
2022/01/07 06:07:22;;;;;;;;;;;;;;;6.21;35.72;99774.69;4482736;32;34137;-84
2022/01/07 06:09:49;;;;;;;;;;;;;;;6.21;35.03;99787.56;4482659;32;34023;-85
2022/01/07 06:12:16;;;;;;;;;;;;;;;6.32;35.07;99778.56;4480294;32;34005;-83
2022/01/07 06:14:43;;;;;;;;;;;;;;;6.57;34.45;99791.59;4482814;32;33356;-87
2022/01/07 06:17:11;;;;;;;;;;;;;;;6.38;34.87;99790.81;4483425;32;34119;-84
2022/01/07 06:19:39;;;;;;;;;;;;;;;7.05;33.87;99780.50;4482413;32;34381;-85
2022/01/07 06:22:09;;;;;;;;;;;;;;;7.01;33.83;99788.94;4482736;32;34932;-84
2022/01/07 06:24:36;;;;;;;;;;;;;;;6.60;34.20;99785.69;4483469;32;33179;-86
2022/01/07 06:27:03;;;;;;;;;;;;;;;6.50;34.56;99796.44;4483171;32;33580;-82
2022/01/07 06:29:30;;;;;;;;;;;;;;;6.69;34.09;99787.72;4481987;32;33363;-86
2022/01/07 06:31:58;;;;;;;;;;;;;;;6.53;34.46;99797.44;4483551;32;34310;-85
2022/01/07 06:34:25;;;;;;;;;;;;;;;6.67;34.17;99805.72;4483522;32;33472;-84
2022/01/07 06:36:52;;;;;;;;;;;;;;;6.99;33.81;99803.47;4483373;32;35165;-87
2022/01/07 06:39:22;;;;;;;;;;;;;;;6.87;33.74;99797.88;4483318;32;34840;-84
2022/01/07 06:41:50;;;;;;;;;;;;;;;6.91;33.67;99797.16;4482034;32;34011;-85
2022/01/07 06:44:18;;;;;;;;;;;;;;;6.38;34.33;99804.56;4482926;32;34319;-85
2022/01/07 06:46:45;;;;;;;;;;;;;;;6.46;34.15;99815.19;4482355;32;34173;-84
2022/01/07 06:49:15;;;;;;;;;;;;;;;6.63;34.01;99806.44;4483557;32;34921;-84
2022/01/07 06:51:42;;;;;;;;;;;;;;;6.55;34.27;99812.94;4482002;32;33853;-83
2022/01/07 06:54:11;;;;;;;;;;;;;;;6.44;34.37;99812.56;4483282;32;33254;-87
2022/01/07 06:56:39;;;;;;;;;;;;;;;6.66;33.82;99805.63;4482217;32;34126;-86
2022/01/07 06:59:06;;;;;;;;;;;;;;;6.48;34.24;99810.97;4481946;32;32176;-85
2022/01/07 07:01:33;;;;;;;;;;;;;;;6.58;34.55;99815.66;4481722;32;34186;-86
2022/01/07 07:04:01;;;;;;;;;;;;;;;6.39;34.46;99810.59;4483546;32;33456;-84
2022/01/07 07:06:28;;;;;;;;;;;;;;;6.41;34.46;99819.28;4483329;32;34175;-84
2022/01/07 07:08:55;;;;;;;;;;;;;;;6.66;34.20;99821.97;4483335;32;35362;-86
2022/01/07 07:11:23;;;;;;;;;;;;;;;6.67;33.83;99815.16;4481927;32;33989;-83
2022/01/07 07:13:50;;;;;;;;;;;;;;;6.38;34.51;99829.47;4483315;32;33200;-83
2022/01/07 07:16:17;;;;;;;;;;;;;;;6.60;34.53;99826.91;4482984;32;34322;-84
2022/01/07 07:18:45;;;;;;;;;;;;;;;6.78;33.81;99817.31;4483016;32;35193;-83
2022/01/07 07:21:12;;;;;;;;;;;;;;;6.47;34.81;99822.94;4483054;32;35038;-84
2022/01/07 07:23:39;;;;;;;;;;;;;;;6.71;34.75;99825.63;4482790;32;33460;-83
2022/01/07 07:26:06;;;;;;;;;;;;;;;6.87;34.02;99816.78;4482914;32;33992;-84
2022/01/07 07:28:36;;;;;;;;;;;;;;;6.77;34.17;99820.69;4481364;32;34016;-83
2022/01/07 07:31:06;;;;;;;;;;;;;;;6.41;35.00;99834.72;4482656;32;33890;-83
2022/01/07 07:36:31;;;;;;;;;;;;;;;6.88;33.99;99830.53;4482771;32;33800;-84
2022/01/07 07:39:00;;;;;;;;;;;;;;;6.65;35.00;99830.53;4481832;32;35087;-83
2022/01/07 07:41:28;;;;;;;;;;;;;;;6.93;33.93;99831.59;4482490;31;34076;-83
2022/01/07 07:43:58;;;;;;;;;;;;;;;6.94;34.20;99833.37;4482486;32;34234;-84
2022/01/07 07:46:27;;;;;;;;;;;;;;;6.70;34.53;99836.72;4482637;32;33781;-84
2022/01/07 07:48:54;;;;;;;;;;;;;;;7.12;33.58;99831.44;4482383;32;35264;-84
2022/01/07 07:51:21;;;;;;;;;;;;;;;7.15;33.44;99834.16;4482679;32;34890;-87
2022/01/07 07:53:49;;;;;;;;;;;;;;;7.21;33.23;99828.34;4482510;32;33379;-84
2022/01/07 07:56:16;;;;;;;;;;;;;;;7.41;32.72;99836.81;4482160;32;35120;-84
2022/01/07 07:58:43;;;;;;;;;;;;;;;7.39;32.79;99838.47;4484708;32;34497;-83
2022/01/07 08:01:12;;;;;;;;;;;;;;;6.99;32.77;99835.28;4483097;32;34610;-88
2022/01/07 08:03:40;;;;;;;;;;;;;;;6.47;33.91;99834.97;4484600;32;34107;-83
2022/01/07 08:06:07;;;;;;;;;;;;;;;7.14;32.68;99841.84;4484586;32;33892;-84
2022/01/07 08:08:34;;;;;;;;;;;;;;;5.83;34.17;99848.59;4483272;32;35155;-85
2022/01/07 08:11:04;;;;;;;;;;;;;;;6.74;33.99;99843.78;4484273;32;34325;-84
2022/01/07 08:15:58;;;;;;;;;;;;;;;6.99;33.20;99847.28;4484555;32;32882;-83
2022/01/07 08:16:19;;;;;;;;;;;;;;;7.35;32.89;99836.56;4484477;32;35067;-84
2022/01/07 08:18:51;;;;;;;;;;;;;;;7.01;33.15;99850.81;4484546;32;34856;-86
2022/01/07 08:21:19;;;;;;;;;;;;;;;7.08;33.50;99847.63;4483050;32;32789;-88
2022/01/07 08:23:47;;;;;;;;;;;;;;;7.76;32.67;99850.94;4484685;32;33091;-84
2022/01/07 08:26:15;;;;;;;;;;;;;;;6.88;33.41;99858.88;4484545;32;33929;-83
2022/01/07 08:28:46;;;;;;;;;;;;;;;7.01;33.12;99855.97;4484357;32;35013;-86
2022/01/07 08:36:36;;;;;;;;;;;;;;;6.33;34.66;99861.06;4484219;32;35108;-83
2022/01/07 08:39:04;;;;;;;;;;;;;;;6.72;34.49;99850.56;4484189;32;35322;-84
2022/01/07 08:41:32;;;;;;;;;;;;;;;6.76;33.92;99852.44;4484081;31;33861;-84
2022/01/07 08:43:59;;;;;;;;;;;;;;;6.83;34.57;99851.00;4483054;32;33648;-84
2022/01/07 08:46:27;;;;;;;;;;;;;;;6.86;34.39;99851.13;4484363;32;34298;-83
2022/01/07 08:48:54;;;;;;;;;;;;;;;6.52;35.23;99854.94;4484138;32;34314;-83
2022/01/07 08:51:21;;;;;;;;;;;;;;;7.39;34.00;99857.41;4484316;32;34413;-84
2022/01/07 08:53:50;;;;;;;;;;;;;;;7.28;32.83;99862.16;4483951;32;33724;-83
2022/01/07 08:56:18;;;;;;;;;;;;;;;7.31;33.42;99862.28;4484331;32;34313;-87
2022/01/07 08:58:46;;;;;;;;;;;;;;;7.86;31.66;99868.53;4484559;32;33736;-84
2022/01/07 09:01:13;;;;;;;;;;;;;;;7.09;33.38;99875.19;4484380;32;33753;-83
2022/01/07 09:03:40;;;;;;;;;;;;;;;7.47;32.61;99863.72;4484197;32;33071;-83
2022/01/07 09:06:08;;;;;;;;;;;;;;;7.15;32.45;99867.66;4484512;32;33573;-83
2022/01/07 09:08:36;;;;;;;;;;;;;;;7.88;31.83;99856.56;4483055;32;34131;-84
2022/01/07 09:11:03;;;;;;;;;;;;;;;7.62;31.66;99858.22;4483848;32;34845;-84
2022/01/07 09:13:31;;;;;;;;;;;;;;;7.65;31.74;99857.44;4483634;32;33656;-84
2022/01/07 09:15:58;;;;;;;;;;;;;;;6.45;33.41;99846.91;4484194;32;34209;-84
2022/01/07 09:18:26;;;;;;;;;;;;;;;6.19;33.75;99844.16;4484068;32;34146;-84
2022/01/07 09:20:54;;;;;;;;;;;;;;;6.91;33.77;99843.56;4484224;32;33957;-85
2022/01/07 09:23:21;;;;;;;;;;;;;;;6.40;34.48;99840.69;4483921;32;33533;-88
2022/01/07 09:25:49;;;;;;;;;;;;;;;7.15;32.96;99841.87;4484032;32;35110;-88
2022/01/07 09:28:16;;;;;;;;;;;;;;;7.04;32.80;99843.19;4484014;32;34425;-84
2022/01/07 09:30:44;;;;;;;;;;;;;;;6.78;33.70;99847.34;4484145;32;34820;-84
2022/01/07 09:33:12;;;;;;;;;;;;;;;6.54;33.41;99837.84;4482681;32;34190;-85
2022/01/07 09:35:39;;;;;;;;;;;;;;;6.92;32.64;99840.16;4483995;32;34220;-84
2022/01/07 09:38:06;;;;;;;;;;;;;;;7.06;33.23;99834.69;4482451;32;33970;-84
2022/01/07 09:40:33;;;;;;;;;;;;;;;7.81;31.90;99833.94;4483791;32;34243;-84
2022/01/07 09:43:06;;;;;;;;;;;;;;;7.69;32.25;99828.31;4483901;32;34230;-84
2022/01/07 09:45:34;;;;;;;;;;;;;;;6.25;32.31;99820.34;4483924;32;34128;-84
2022/01/07 09:48:01;;;;;;;;;;;;;;;6.57;34.71;99826.78;4483721;32;34306;-85
2022/01/07 09:50:29;;;;;;;;;;;;;;;5.48;34.42;99818.81;4483773;32;34038;-83
2022/01/07 09:52:56;;;;;;;;;;;;;;;6.62;33.84;99814.94;4483552;32;33831;-84
2022/01/07 09:55:24;;;;;;;;;;;;;;;4.96;35.02;99819.94;4483529;32;33768;-83
2022/01/07 09:57:51;;;;;;;;;;;;;;;4.95;34.39;99810.47;4483851;32;34415;-88
2022/01/07 10:00:18;;;;;;;;;;;;;;;4.68;35.86;99815.22;4483732;32;34128;-87
2022/01/07 10:03:02;;;;;;;;;;;;;;;4.63;36.03;99821.84;4483453;32;33256;-86
2022/01/07 10:05:30;;;;;;;;;;;;;;;4.36;36.47;99804.34;4483519;32;34155;-84
2022/01/07 10:08:15;;;;;;;;;;;;;;;5.45;36.50;99804.09;4483228;32;35210;-84
2022/01/07 10:10:42;;;;;;;;;;;;;;;5.98;34.23;99804.66;4482516;32;33849;-84
2022/01/07 10:13:09;;;;;;;;;;;;;;;6.55;32.86;99789.75;4483606;32;33275;-84
2022/01/07 10:15:37;;;;;;;;;;;;;;;6.22;33.60;99792.78;4483984;32;33669;-88
2022/01/07 10:18:09;;;;;;;;;;;;;;;6.05;35.35;99789.53;4483566;32;34440;-88
2022/01/07 10:20:37;;;;;;;;;;;;;;;5.99;34.54;99788.41;4481719;32;34022;-83
2022/01/07 10:23:26;;;;;;;;;;;;;;;5.50;34.77;99796.63;4482643;32;33442;-83
2022/01/07 10:25:54;;;;;;;;;;;;;;;6.24;33.99;99779.97;4482194;32;34221;-89
2022/01/07 10:28:27;;;;;;;;;;;;;;;5.56;34.89;99779.72;4483558;32;33946;-83
2022/01/07 10:30:55;;;;;;;;;;;;;;;5.62;35.54;99786.84;4483376;32;35332;-83
2022/01/07 10:33:23;;;;;;;;;;;;;;;5.18;36.05;99772.94;4481822;32;34229;-83
2022/01/07 10:35:54;;;;;;;;;;;;;;;6.27;35.02;99778.41;4482148;32;35000;-85
2022/01/07 10:38:23;;;;;;;;;;;;;;;5.59;35.36;99763.56;4483404;32;35090;-84
2022/01/07 10:40:50;;;;;;;;;;;;;;;6.16;34.81;99755.63;4483415;32;34332;-84
2022/01/07 10:43:22;;;;;;;;;;;;;;;6.90;33.63;99751.59;4483427;32;34304;-85
2022/01/07 10:45:50;;;;;;;;;;;;;;;6.40;33.76;99764.28;4481876;32;34193;-85
2022/01/07 10:48:18;;;;;;;;;;;;;;;6.33;33.87;99754.59;4483651;32;34496;-87
2022/01/07 10:50:46;;;;;;;;;;;;;;;6.40;34.62;99753.12;4483285;32;34561;-88
2022/01/07 10:53:14;;;;;;;;;;;;;;;6.09;34.10;99747.63;4482019;32;33412;-83
2022/01/07 10:55:50;;;;;;;;;;;;;;;5.10;35.33;99754.63;4483266;32;34810;-87
2022/01/07 10:58:18;;;;;;;;;;;;;;;5.01;35.74;99750.78;4481978;32;34933;-84
2022/01/07 11:00:45;;;;;;;;;;;;;;;5.53;34.40;99740.16;4482858;32;34485;-86
2022/01/07 11:03:12;;;;;;;;;;;;;;;6.12;35.92;99736.59;4483206;32;33968;-84
2022/01/07 11:05:40;;;;;;;;;;;;;;;6.76;33.32;99736.47;4483121;32;34934;-87
2022/01/07 11:08:07;;;;;;;;;;;;;;;6.46;32.95;99736.22;4481861;32;35148;-84
2022/01/07 11:10:36;;;;;;;;;;;;;;;6.70;32.21;99731.09;4483074;32;34376;-85
2022/01/07 11:13:03;;;;;;;;;;;;;;;5.68;34.00;99724.47;4483058;32;33145;-83
2022/01/07 11:15:31;;;;;;;;;;;;;;;4.91;35.49;99730.62;4481753;32;33847;-84
2022/01/07 11:17:58;;;;;;;;;;;;;;;5.83;34.33;99715.72;4483103;32;34900;-87
2022/01/07 11:20:25;;;;;;;;;;;;;;;5.01;34.90;99707.09;4482822;32;34152;-83
2022/01/07 11:22:52;;;;;;;;;;;;;;;5.71;35.19;99725.47;4482889;32;32891;-84
2022/01/07 11:25:20;;;;;;;;;;;;;;;6.24;32.78;99708.75;4482973;32;34192;-84
2022/01/07 11:27:51;;;;;;;;;;;;;;;7.13;31.69;99701.72;4481593;32;34894;-83
2022/01/07 11:30:19;;;;;;;;;;;;;;;7.02;32.19;99714.22;4483216;32;34029;-84
2022/01/07 11:32:47;;;;;;;;;;;;;;;6.09;33.16;99716.75;4484491;32;32904;-84
2022/01/07 11:35:17;;;;;;;;;;;;;;;6.05;33.64;99699.44;4484400;32;34245;-87
2022/01/07 11:37:45;;;;;;;;;;;;;;;6.05;35.17;99714.00;4484692;32;33916;-84
2022/01/07 11:40:28;;;;;;;;;;;;;;;6.64;33.36;99699.97;4484911;32;34300;-84
2022/01/07 11:43:15;;;;;;;;;;;;;;;6.72;32.78;99692.50;4484887;32;33496;-84
2022/01/07 11:45:42;;;;;;;;;;;;;;;7.78;31.61;99694.44;4484527;32;34873;-85
2022/01/07 11:48:10;;;;;;;;;;;;;;;6.73;33.20;99686.53;4484620;32;34784;-84
2022/01/07 11:50:46;;;;;;;;;;;;;;;7.04;32.74;99691.06;4483712;32;33815;-88
2022/01/07 11:53:14;;;;;;;;;;;;;;;6.34;33.58;99685.12;4484555;32;34464;-84
2022/01/07 11:55:41;;;;;;;;;;;;;;;7.03;33.98;99677.31;4484842;32;34067;-83
2022/01/07 11:58:09;;;;;;;;;;;;;;;6.48;33.98;99688.22;4484650;32;34351;-84
2022/01/07 12:00:56;;;;;;;;;;;;;;;6.98;32.65;99676.28;4483235;32;34322;-84
2022/01/07 12:03:43;;;;;;;;;;;;;;;7.28;32.86;99661.00;4483532;32;32621;-84
2022/01/07 12:06:27;;;;;;;;;;;;;;;7.38;32.13;99671.59;4483534;32;34148;-84
2022/01/07 12:09:22;;;;;;;;;;;;;;;7.22;32.18;99673.66;4484391;32;34394;-84
2022/01/07 12:11:54;;;;;;;;;;;;;;;7.27;32.11;99656.66;4484399;32;34966;-85
2022/01/07 12:14:22;;;;;;;;;;;;;;;8.01;31.41;99656.44;4484429;32;33714;-85
2022/01/07 12:16:56;;;;;;;;;;;;;;;8.13;31.17;99666.25;4484295;32;33798;-84
2022/01/07 12:19:36;;;;;;;;;;;;;;;7.46;31.97;99649.50;4483352;32;34363;-88
2022/01/07 12:22:07;;;;;;;;;;;;;;;7.69;30.68;99653.75;4484421;32;34025;-83
2022/01/07 12:24:35;;;;;;;;;;;;;;;6.33;32.71;99667.91;4483307;32;32817;-84
2022/01/07 12:27:02;;;;;;;;;;;;;;;8.16;31.36;99645.69;4484491;32;33875;-84
2022/01/07 12:29:30;;;;;;;;;;;;;;;8.52;31.80;99653.66;4484394;32;34776;-86
2022/01/07 12:31:57;;;;;;;;;;;;;;;9.14;31.13;99635.56;4482901;32;34942;-83
2022/01/07 12:34:25;;;;;;;;;;;;;;;7.49;31.18;99642.75;4483025;32;34213;-83
2022/01/07 12:36:56;;;;;;;;;;;;;;;8.32;30.70;99647.03;4483044;32;34262;-84
2022/01/07 12:39:27;;;;;;;;;;;;;;;8.33;30.42;99630.69;4484296;32;35352;-87
2022/01/07 12:41:55;;;;;;;;;;;;;;;7.84;30.99;99634.38;4484172;31;34837;-83
2022/01/07 12:44:22;;;;;;;;;;;;;;;8.29;30.44;99628.00;4484404;32;32797;-87
2022/01/07 12:46:55;;;;;;;;;;;;;;;8.55;30.63;99620.16;4483812;32;34931;-88
2022/01/07 12:49:40;;;;;;;;;;;;;;;7.98;31.99;99626.22;4483057;32;33866;-84
2022/01/07 12:52:15;;;;;;;;;;;;;;;8.55;29.81;99630.50;4483999;32;34323;-89
2022/01/07 12:54:53;;;;;;;;;;;;;;;8.74;30.44;99624.12;4482855;32;33683;-84
2022/01/07 12:57:24;;;;;;;;;;;;;;;9.00;31.22;99617.94;4483980;32;34042;-88
2022/01/07 13:00:09;;;;;;;;;;;;;;;9.22;28.97;99609.03;4481426;32;87994;-83
2022/01/07 13:02:37;;;;;;;;;;;;;;;9.04;30.42;99613.75;4483747;32;35113;-84
2022/01/07 13:05:22;;;;;;;;;;;;;;;9.11;29.92;99613.06;4484363;32;33186;-86
2022/01/07 13:07:57;;;;;;;;;;;;;;;9.18;29.53;99608.94;4482749;32;35139;-84
2022/01/07 13:10:27;;;;;;;;;;;;;;;8.76;29.93;99615.59;4483124;32;33931;-85
2022/01/07 13:12:59;;;;;;;;;;;;;;;8.98;30.16;99609.28;4484100;32;34121;-85